createdAt,value
2019-01-19T00:01:53.744Z,1.00
2019-01-19T00:04:36.947Z,1.00
2019-01-19T00:07:44.922Z,1.10
2019-01-19T00:10:50.751Z,1.10
2019-01-19T00:13:44.508Z,1.10
2019-01-19T00:16:28.482Z,1.30
2019-01-19T00:19:50.816Z,1.10
2019-01-19T00:23:04.257Z,1.10
2019-01-19T00:26:06.222Z,1.10
2019-01-19T00:28:40.523Z,1.10
2019-01-19T00:31:15.903Z,1.20
2019-01-19T00:34:11.015Z,1.10
2019-01-19T00:37:03.540Z,1.00
2019-01-19T00:40:07.308Z,0.80
2019-01-19T00:43:06.545Z,0.80
2019-01-19T00:46:04.868Z,0.90
2019-01-19T00:49:13.892Z,0.90
2019-01-19T00:52:35.086Z,0.80
2019-01-19T00:55:28.213Z,0.90
2019-01-19T00:58:31.111Z,0.90
2019-01-19T01:01:44.768Z,0.90
2019-01-19T01:04:40.628Z,0.90
2019-01-19T01:07:52.995Z,1.00
2019-01-19T01:10:50.613Z,0.90
2019-01-19T01:13:44.202Z,0.90
2019-01-19T01:16:46.724Z,0.90
2019-01-19T01:19:39.241Z,0.80
2019-01-19T01:22:41.749Z,0.80
2019-01-19T01:25:43.206Z,0.80
2019-01-19T01:29:08.240Z,0.90
2019-01-19T01:31:56.119Z,0.80
2019-01-19T01:35:17.512Z,0.70
2019-01-19T01:38:18.458Z,0.70
2019-01-19T01:41:17.558Z,0.70
2019-01-19T01:44:15.959Z,0.70
2019-01-19T01:47:32.174Z,0.60
2019-01-19T01:50:28.910Z,0.70
2019-01-19T01:53:57.005Z,0.80
2019-01-19T01:56:26.291Z,0.70
2019-01-19T01:59:25.581Z,0.70
2019-01-19T02:02:31.734Z,0.60
2019-01-19T02:05:30.346Z,0.60
2019-01-19T02:08:28.173Z,0.50
2019-01-19T02:11:06.924Z,0.40
2019-01-19T02:14:03.889Z,0.30
2019-01-19T02:16:52.946Z,0.30
2019-01-19T02:19:44.997Z,0.30
2019-01-19T02:23:10.612Z,0.30
2019-01-19T02:25:54.195Z,0.30
2019-01-19T02:28:39.781Z,0.20
2019-01-19T02:31:53.554Z,0.10
2019-01-19T02:34:43.957Z,0.10
2019-01-19T02:37:33.661Z,0.20
2019-01-19T02:40:40.740Z,0.10
2019-01-19T02:43:55.196Z,0.10
2019-01-19T02:47:04.170Z,0.10
2019-01-19T02:50:00.238Z,0.00
2019-01-19T02:52:56.050Z,0.00
2019-01-19T02:56:00.015Z,0.00
2019-01-19T02:59:04.593Z,0.10
2019-01-19T03:02:14.356Z,0.10
2019-01-19T03:05:09.095Z,0.00
2019-01-19T03:08:02.590Z,-0.10
2019-01-19T03:11:22.238Z,-0.10
2019-01-19T03:14:47.138Z,-0.20
2019-01-19T03:18:11.193Z,-0.20
2019-01-19T03:21:09.761Z,-0.20
2019-01-19T03:24:08.263Z,-0.30
2019-01-19T03:27:13.227Z,-0.20
2019-01-19T03:30:24.994Z,-0.20
2019-01-19T03:33:30.821Z,-0.40
2019-01-19T03:36:29.381Z,-0.50
2019-01-19T03:39:25.636Z,-0.50
2019-01-19T03:42:56.808Z,-0.50
2019-01-19T03:46:01.296Z,-0.40
2019-01-19T03:48:55.469Z,-0.40
2019-01-19T03:51:39.470Z,-0.40
2019-01-19T03:54:56.368Z,-0.40
2019-01-19T03:57:50.696Z,-0.40
2019-01-19T04:00:55.415Z,-0.30
2019-01-19T04:03:58.015Z,-0.40
2019-01-19T04:06:40.125Z,-0.40
2019-01-19T04:09:39.305Z,-0.60
2019-01-19T04:12:31.847Z,-0.50
2019-01-19T04:15:30.664Z,-0.50
2019-01-19T04:18:12.624Z,-0.50
2019-01-19T04:21:19.504Z,-0.50
2019-01-19T04:23:53.878Z,-0.40
2019-01-19T04:26:31.188Z,-0.50
2019-01-19T04:29:00.441Z,-0.50
2019-01-19T04:31:29.685Z,-0.30
2019-01-19T04:33:59.354Z,-0.40
2019-01-19T04:36:29.466Z,-0.40
2019-01-19T04:38:59.065Z,-0.40
2019-01-19T04:41:28.277Z,-0.40
2019-01-19T04:43:57.476Z,-0.40
2019-01-19T04:46:26.661Z,-0.40
2019-01-19T04:48:55.907Z,-0.40
2019-01-19T04:51:25.328Z,-0.30
2019-01-19T04:53:54.492Z,-0.30
2019-01-19T04:56:24.597Z,-0.20
2019-01-19T04:58:54.001Z,-0.40
2019-01-19T05:01:23.307Z,-0.50
2019-01-19T05:03:52.614Z,-0.50
2019-01-19T05:06:30.051Z,-0.60
2019-01-19T05:08:52.806Z,-0.50
2019-01-19T05:11:22.014Z,-0.50
2019-01-19T05:13:51.271Z,-0.50
2019-01-19T05:16:20.877Z,-0.40
2019-01-19T05:18:50.036Z,-0.40
2019-01-19T05:21:19.629Z,-0.30
2019-01-19T05:23:49.065Z,-0.20
2019-01-19T05:26:18.274Z,-0.20
2019-01-19T05:28:47.448Z,-0.20
2019-01-19T05:31:16.739Z,-0.30
2019-01-19T05:33:46.282Z,-0.30
2019-01-19T05:36:15.466Z,-0.40
2019-01-19T05:38:44.703Z,-0.50
2019-01-19T05:41:14.317Z,-0.40
2019-01-19T05:43:43.526Z,-0.50
2019-01-19T05:46:12.719Z,-0.60
2019-01-19T05:48:41.946Z,-0.60
2019-01-19T05:51:11.742Z,-0.70
2019-01-19T05:53:40.960Z,-0.60
2019-01-19T05:56:10.201Z,-0.60
2019-01-19T05:58:39.385Z,-0.50
2019-01-19T06:01:08.954Z,-0.60
2019-01-19T06:03:38.135Z,-0.80
2019-01-19T06:06:07.717Z,-0.50
2019-01-19T06:08:37.238Z,-0.50
2019-01-19T06:11:06.417Z,-0.60
2019-01-19T06:13:35.605Z,-0.80
2019-01-19T06:16:05.193Z,-0.90
2019-01-19T06:18:35.621Z,-0.80
2019-01-19T06:21:06.678Z,-0.70
2019-01-19T06:23:35.962Z,-0.80
2019-01-19T06:26:05.150Z,-0.90
2019-01-19T06:28:34.609Z,-0.80
2019-01-19T06:31:03.797Z,-0.80
2019-01-19T06:33:33.229Z,-1.00
2019-01-19T06:36:02.405Z,-0.90
2019-01-19T06:38:31.601Z,-1.00
2019-01-19T06:41:01.070Z,-1.00
2019-01-19T06:43:30.357Z,-1.00
2019-01-19T06:45:59.580Z,-1.10
2019-01-19T06:48:28.844Z,-1.10
2019-01-19T06:50:58.012Z,-1.00
2019-01-19T06:53:27.265Z,-0.90
2019-01-19T06:55:56.582Z,-1.10
2019-01-19T06:58:25.846Z,-0.90
2019-01-19T07:00:55.012Z,-1.00
2019-01-19T07:03:24.530Z,-1.00
2019-01-19T07:05:53.701Z,-1.00
2019-01-19T07:08:22.885Z,-0.90
2019-01-19T07:10:52.037Z,-0.80
2019-01-19T07:13:21.221Z,-0.80
2019-01-19T07:15:50.477Z,-0.80
2019-01-19T07:18:19.673Z,-0.70
2019-01-19T07:20:49.165Z,-0.90
2019-01-19T07:23:18.628Z,-0.90
2019-01-19T07:25:47.798Z,-0.90
2019-01-19T07:28:17.321Z,-0.70
2019-01-19T07:30:46.530Z,-0.70
2019-01-19T07:33:15.720Z,-0.70
2019-01-19T07:35:45.220Z,-0.60
2019-01-19T07:38:14.749Z,-0.60
2019-01-19T07:40:44.025Z,-0.80
2019-01-19T07:43:15.268Z,-0.80
2019-01-19T07:45:44.484Z,-0.60
2019-01-19T07:48:13.965Z,-0.70
2019-01-19T07:50:43.212Z,-0.40
2019-01-19T07:53:12.526Z,-0.50
2019-01-19T07:55:41.825Z,-0.60
2019-01-19T07:58:11.014Z,-0.50
2019-01-19T08:00:40.445Z,-0.60
2019-01-19T08:03:09.942Z,-0.60
2019-01-19T08:05:39.455Z,-0.60
2019-01-19T08:08:08.957Z,-0.60
2019-01-19T08:10:38.140Z,-0.30
2019-01-19T08:13:07.766Z,-0.30
2019-01-19T08:15:37.293Z,-0.30
2019-01-19T08:18:06.537Z,-0.30
2019-01-19T08:20:35.857Z,-0.20
2019-01-19T08:23:05.120Z,-0.30
2019-01-19T08:25:34.577Z,-0.20
2019-01-19T08:28:03.808Z,-0.20
2019-01-19T08:30:33.034Z,-0.10
2019-01-19T08:33:02.418Z,0.10
2019-01-19T08:35:32.012Z,0.20
2019-01-19T08:38:01.168Z,0.10
2019-01-19T08:40:35.424Z,0.10
2019-01-19T08:43:35.855Z,0.30
2019-01-19T08:46:05.142Z,0.40
2019-01-19T08:48:35.643Z,0.50
2019-01-19T08:51:04.941Z,0.60
2019-01-19T08:53:34.106Z,0.60
2019-01-19T08:56:03.384Z,0.40
2019-01-19T08:58:33.274Z,0.40
2019-01-19T09:01:02.737Z,0.60
2019-01-19T09:03:32.193Z,0.70
2019-01-19T09:06:01.726Z,0.70
2019-01-19T09:08:32.023Z,1.00
2019-01-19T09:11:02.323Z,1.20
2019-01-19T09:13:31.665Z,1.40
2019-01-19T09:16:06.741Z,1.50
2019-01-19T09:18:36.071Z,1.40
2019-01-19T09:21:06.186Z,1.40
2019-01-19T09:23:43.728Z,1.60
2019-01-19T09:26:13.024Z,1.70
2019-01-19T09:28:42.398Z,1.80
2019-01-19T09:31:11.593Z,2.00
2019-01-19T09:33:40.937Z,1.90
2019-01-19T09:36:10.770Z,1.90
2019-01-19T09:38:40.088Z,2.10
2019-01-19T09:41:09.592Z,2.10
2019-01-19T09:43:40.045Z,2.20
2019-01-19T09:46:09.467Z,2.20
2019-01-19T09:48:38.728Z,2.10
2019-01-19T09:51:08.074Z,2.20
2019-01-19T09:53:37.722Z,2.20
2019-01-19T09:56:07.097Z,2.30
2019-01-19T09:58:36.935Z,2.40
2019-01-19T10:01:06.436Z,2.40
2019-01-19T10:03:36.641Z,2.40
2019-01-19T10:06:07.571Z,2.50
2019-01-19T10:08:42.849Z,2.60
2019-01-19T10:11:12.740Z,2.70
2019-01-19T10:13:42.324Z,2.70
2019-01-19T10:16:11.885Z,2.80
2019-01-19T10:18:41.185Z,2.70
2019-01-19T10:21:10.489Z,2.60
2019-01-19T10:23:40.121Z,2.80
2019-01-19T10:26:09.306Z,2.70
2019-01-19T10:28:39.565Z,2.80
2019-01-19T10:31:08.957Z,2.90
2019-01-19T10:33:39.415Z,2.90
2019-01-19T10:36:08.746Z,2.90
2019-01-19T10:38:38.648Z,3.00
2019-01-19T10:41:08.954Z,3.10
2019-01-19T10:43:38.751Z,3.10
2019-01-19T10:46:08.194Z,3.20
2019-01-19T10:48:37.470Z,3.30
2019-01-19T10:51:06.827Z,3.30
2019-01-19T10:53:36.173Z,3.30
2019-01-19T10:56:05.655Z,3.40
2019-01-19T10:58:35.266Z,3.40
2019-01-19T11:01:04.849Z,3.40
2019-01-19T11:03:34.128Z,3.30
2019-01-19T11:06:03.644Z,3.20
2019-01-19T11:08:33.211Z,3.30
2019-01-19T11:11:02.566Z,3.40
2019-01-19T11:13:31.976Z,3.40
2019-01-19T11:16:02.956Z,3.40
2019-01-19T11:18:32.337Z,3.50
2019-01-19T11:21:01.544Z,3.60
2019-01-19T11:23:30.887Z,3.50
2019-01-19T11:26:00.222Z,3.50
2019-01-19T11:28:29.486Z,3.60
2019-01-19T11:30:58.990Z,3.70
2019-01-19T11:33:28.182Z,3.70
2019-01-19T11:35:58.000Z,3.70
2019-01-19T11:38:27.546Z,3.70
2019-01-19T11:40:56.805Z,3.80
2019-01-19T11:43:26.197Z,3.90
2019-01-19T11:45:55.430Z,3.60
2019-01-19T11:48:24.817Z,3.60
2019-01-19T11:50:53.977Z,3.80
2019-01-19T11:53:23.296Z,3.90
2019-01-19T11:55:52.859Z,4.00
2019-01-19T11:58:22.445Z,3.90
2019-01-19T12:00:51.737Z,4.10
2019-01-19T12:03:21.225Z,4.10
2019-01-19T12:05:50.502Z,4.10
2019-01-19T12:08:20.007Z,4.20
2019-01-19T12:10:49.405Z,4.30
2019-01-19T12:13:18.676Z,4.30
2019-01-19T12:15:47.949Z,4.40
2019-01-19T12:18:17.404Z,4.30
2019-01-19T12:20:48.764Z,4.40
2019-01-19T12:23:18.196Z,4.40
2019-01-19T12:25:47.405Z,4.50
2019-01-19T12:28:16.649Z,4.50
2019-01-19T12:30:46.005Z,4.70
2019-01-19T12:33:15.297Z,4.60
2019-01-19T12:35:44.541Z,4.50
2019-01-19T12:38:13.822Z,4.50
2019-01-19T12:40:43.028Z,4.60
2019-01-19T12:43:15.209Z,4.60
2019-01-19T12:46:14.410Z,4.50
2019-01-19T12:48:43.738Z,4.60
2019-01-19T12:51:14.218Z,4.60
2019-01-19T12:53:43.549Z,4.60
2019-01-19T12:56:12.785Z,4.50
2019-01-19T12:58:42.010Z,4.40
2019-01-19T13:01:11.205Z,4.30
2019-01-19T13:03:40.966Z,4.20
2019-01-19T13:06:37.344Z,4.30
2019-01-19T13:09:30.786Z,4.30
2019-01-19T13:12:43.917Z,4.30
2019-01-19T13:15:56.101Z,4.30
2019-01-19T13:18:39.997Z,4.30
2019-01-19T13:21:38.204Z,4.40
2019-01-19T13:25:09.861Z,4.30
2019-01-19T13:28:28.697Z,4.30
2019-01-19T13:31:30.777Z,4.40
2019-01-19T13:34:33.679Z,6.40
2019-01-19T13:37:54.514Z,7.70
2019-01-19T13:40:53.213Z,8.30
2019-01-19T13:43:55.749Z,9.10
2019-01-19T13:47:07.954Z,9.00
2019-01-19T13:50:16.881Z,8.90
2019-01-19T13:53:40.722Z,9.10
2019-01-19T13:56:54.566Z,9.30
2019-01-19T13:59:48.214Z,9.50
2019-01-19T14:02:46.808Z,9.60
2019-01-19T14:05:44.772Z,9.40
2019-01-19T14:08:39.727Z,9.70
2019-01-19T14:11:32.380Z,9.50
2019-01-19T14:14:52.582Z,9.40
2019-01-19T14:18:14.421Z,8.90
2019-01-19T14:21:23.440Z,8.80
2019-01-19T14:24:07.826Z,9.10
2019-01-19T14:27:00.952Z,8.60
2019-01-19T14:29:58.697Z,8.60
2019-01-19T14:32:41.966Z,8.20
2019-01-19T14:35:33.009Z,8.40
2019-01-19T14:38:27.889Z,8.00
2019-01-19T14:41:58.874Z,8.30
2019-01-19T14:45:10.505Z,7.90
2019-01-19T14:48:06.792Z,7.60
2019-01-19T14:50:52.316Z,6.80
2019-01-19T14:54:04.070Z,6.00
2019-01-19T14:56:58.554Z,5.90
2019-01-19T15:00:18.147Z,6.50
2019-01-19T15:03:30.366Z,6.70
2019-01-19T15:06:55.629Z,6.50
2019-01-19T15:10:01.593Z,6.70
2019-01-19T15:13:22.586Z,5.50
2019-01-19T15:16:01.434Z,5.40
2019-01-19T15:19:22.169Z,5.30
2019-01-19T15:22:08.252Z,5.30
2019-01-19T15:25:15.744Z,3.50
2019-01-19T15:28:25.785Z,4.50
2019-01-19T15:31:23.622Z,4.10
2019-01-19T15:34:26.607Z,3.20
2019-01-19T15:37:41.237Z,2.70
2019-01-19T15:40:54.928Z,2.50
2019-01-19T15:43:58.944Z,2.60
2019-01-19T15:46:53.325Z,2.30
2019-01-19T15:50:09.414Z,2.30
2019-01-19T15:53:06.424Z,2.30
2019-01-19T15:56:22.652Z,2.20
2019-01-19T15:59:15.329Z,2.00
2019-01-19T16:02:56.046Z,1.90
2019-01-19T16:06:07.670Z,1.80
2019-01-19T16:09:04.317Z,1.70
2019-01-19T16:12:02.442Z,1.90
2019-01-19T16:15:01.149Z,1.80
2019-01-19T16:17:54.677Z,1.80
2019-01-19T16:21:08.300Z,1.70
2019-01-19T16:23:57.381Z,1.70
2019-01-19T16:26:58.824Z,1.80
2019-01-19T16:30:12.138Z,1.60
2019-01-19T16:33:25.737Z,1.60
2019-01-19T16:36:35.262Z,1.70
2019-01-19T16:39:32.055Z,1.60
2019-01-19T16:42:15.778Z,1.50
2019-01-19T16:45:24.561Z,1.60
2019-01-19T16:48:33.014Z,1.40
2019-01-19T16:51:25.503Z,1.30
2019-01-19T16:54:11.499Z,1.30
2019-01-19T16:57:21.150Z,1.20
2019-01-19T17:00:13.430Z,1.30
2019-01-19T17:03:19.749Z,1.20
2019-01-19T17:06:21.039Z,1.30
2019-01-19T17:09:23.667Z,1.10
2019-01-19T17:12:54.922Z,1.00
2019-01-19T17:16:03.080Z,1.00
2019-01-19T17:18:50.280Z,0.80
2019-01-19T17:21:44.879Z,0.70
2019-01-19T17:25:10.061Z,0.80
2019-01-19T17:28:08.377Z,0.80
2019-01-19T17:31:24.389Z,0.70
2019-01-19T17:34:32.545Z,0.70
2019-01-19T17:37:35.356Z,0.70
2019-01-19T17:40:23.220Z,0.50
2019-01-19T17:43:29.573Z,0.50
2019-01-19T17:46:26.718Z,0.50
2019-01-19T17:49:32.281Z,0.50
2019-01-19T17:52:44.321Z,0.50
2019-01-19T17:56:09.725Z,0.40
2019-01-19T17:59:11.553Z,0.40
2019-01-19T18:02:24.823Z,0.30
2019-01-19T18:05:17.221Z,0.30
2019-01-19T18:08:10.856Z,0.30
2019-01-19T18:11:18.050Z,0.40
2019-01-19T18:14:24.168Z,0.20
2019-01-19T18:17:24.126Z,0.10
2019-01-19T18:20:34.957Z,0.10
2019-01-19T18:23:39.829Z,0.10
2019-01-19T18:26:44.573Z,0.10
2019-01-19T18:30:16.194Z,0.20
2019-01-19T18:33:15.207Z,0.20
2019-01-19T18:36:14.771Z,0.20
2019-01-19T18:38:53.022Z,0.20
2019-01-19T18:42:06.514Z,0.20
2019-01-19T18:44:44.711Z,0.30
2019-01-19T18:47:45.982Z,0.20
2019-01-19T18:51:23.229Z,0.20
2019-01-19T18:54:42.340Z,0.10
2019-01-19T18:58:10.851Z,0.10
2019-01-19T19:01:15.629Z,0.10
2019-01-19T19:04:13.571Z,0.10
2019-01-19T19:07:35.605Z,0.20
2019-01-19T19:10:28.733Z,0.10
2019-01-19T19:13:28.887Z,0.10
2019-01-19T19:16:11.234Z,-0.10
2019-01-19T19:19:15.057Z,-0.10
2019-01-19T19:22:12.701Z,-0.10
2019-01-19T19:25:13.524Z,0.00
2019-01-19T19:28:24.073Z,-0.10
2019-01-19T19:31:15.979Z,-0.10
2019-01-19T19:34:33.948Z,0.00
2019-01-19T19:37:22.474Z,-0.10
2019-01-19T19:40:32.609Z,0.00
2019-01-19T19:43:22.353Z,-0.10
2019-01-19T19:46:32.538Z,-0.10
2019-01-19T19:49:48.946Z,-0.10
2019-01-19T19:52:18.114Z,-0.20
2019-01-19T19:54:52.456Z,-0.20
2019-01-19T19:57:21.704Z,-0.30
2019-01-19T19:59:51.225Z,-0.30
2019-01-19T20:02:20.484Z,-0.30
2019-01-19T20:04:49.893Z,-0.30
2019-01-19T20:07:19.181Z,-0.30
2019-01-19T20:09:48.394Z,-0.40
2019-01-19T20:12:17.905Z,-0.30
2019-01-19T20:14:47.480Z,-0.30
2019-01-19T20:17:16.753Z,-0.30
2019-01-19T20:19:46.646Z,-0.30
2019-01-19T20:22:15.894Z,-0.40
2019-01-19T20:24:45.213Z,-0.40
2019-01-19T20:27:14.497Z,-0.40
2019-01-19T20:29:44.210Z,-0.50
2019-01-19T20:32:13.397Z,-0.60
2019-01-19T20:34:42.593Z,-0.60
2019-01-19T20:37:12.129Z,-0.50
2019-01-19T20:39:41.449Z,-0.60
2019-01-19T20:42:10.873Z,-0.50
2019-01-19T20:44:40.481Z,-0.50
2019-01-19T20:47:10.555Z,-0.60
2019-01-19T20:49:39.859Z,-0.40
2019-01-19T20:52:09.045Z,-0.50
2019-01-19T20:54:38.573Z,-0.50
2019-01-19T20:57:08.229Z,-0.50
2019-01-19T20:59:37.615Z,-0.50
2019-01-19T21:02:07.083Z,-0.60
2019-01-19T21:04:36.393Z,-0.60
2019-01-19T21:07:05.747Z,-0.60
2019-01-19T21:09:35.073Z,-0.60
2019-01-19T21:12:04.765Z,-0.60
2019-01-19T21:14:34.208Z,-0.70
2019-01-19T21:17:03.802Z,-0.70
2019-01-19T21:19:33.333Z,-0.60
2019-01-19T21:22:02.794Z,-0.60
2019-01-19T21:24:32.336Z,-0.70
2019-01-19T21:27:02.129Z,-0.70
2019-01-19T21:29:31.330Z,-0.80
2019-01-19T21:32:00.690Z,-0.80
2019-01-19T21:34:30.021Z,-0.90
2019-01-19T21:36:59.764Z,-0.80
2019-01-19T21:39:29.137Z,-0.80
2019-01-19T21:41:58.610Z,-0.80
2019-01-19T21:44:27.937Z,-0.80
2019-01-19T21:46:57.614Z,-0.80
2019-01-19T21:49:26.853Z,-0.80
2019-01-19T21:51:56.511Z,-0.80
2019-01-19T21:54:25.867Z,-0.80
2019-01-19T21:56:55.263Z,-0.80
2019-01-19T21:59:24.826Z,-0.80
2019-01-19T22:01:54.181Z,-0.80
2019-01-19T22:04:23.667Z,-0.80
2019-01-19T22:06:52.978Z,-0.80
2019-01-19T22:09:22.314Z,-0.80
2019-01-19T22:11:51.509Z,-0.80
2019-01-19T22:14:20.789Z,-0.80
2019-01-19T22:16:50.067Z,-0.80
2019-01-19T22:19:19.316Z,-0.80
2019-01-19T22:21:48.961Z,-0.80
2019-01-19T22:24:18.147Z,-0.90
2019-01-19T22:26:50.690Z,-0.90
2019-01-19T22:29:20.077Z,-1.10
2019-01-19T22:31:49.335Z,-0.90
2019-01-19T22:34:18.613Z,-0.90
2019-01-19T22:36:48.101Z,-0.90
2019-01-19T22:39:17.308Z,-0.90
2019-01-19T22:41:46.506Z,-0.90
2019-01-19T22:44:15.858Z,-1.00
2019-01-19T22:46:45.150Z,-0.90
2019-01-19T22:49:14.444Z,-1.00
2019-01-19T22:51:43.646Z,-1.00
2019-01-19T22:54:12.999Z,-1.00
2019-01-19T22:56:42.252Z,-1.10
2019-01-19T22:59:11.900Z,-1.20
2019-01-19T23:02:06.757Z,-1.10
2019-01-19T23:04:36.290Z,-1.10
2019-01-19T23:07:05.869Z,-1.10
2019-01-19T23:09:35.191Z,-1.10
2019-01-19T23:12:04.470Z,-1.20
2019-01-19T23:14:33.936Z,-1.20
2019-01-19T23:17:03.398Z,-1.20
2019-01-19T23:19:32.584Z,-1.10
2019-01-19T23:22:01.794Z,-1.10
2019-01-19T23:24:31.133Z,-1.30
2019-01-19T23:27:05.122Z,-1.30
2019-01-19T23:29:34.486Z,-1.30
2019-01-19T23:32:03.985Z,-1.40
2019-01-19T23:34:33.230Z,-1.40
2019-01-19T23:37:02.506Z,-1.40
2019-01-19T23:39:31.825Z,-1.30
2019-01-19T23:42:01.207Z,-1.30
2019-01-19T23:44:30.697Z,-1.40
2019-01-19T23:46:59.968Z,-1.40
2019-01-19T23:49:29.228Z,-1.40
2019-01-19T23:51:58.755Z,-1.40
2019-01-19T23:54:28.008Z,-1.40
2019-01-19T23:56:57.182Z,-1.40
2019-01-19T23:59:26.982Z,-1.50
